sensor_id;sensor_type;location;lat;lon;timestamp;temperature;humidity
39815;DHT22;25495;45.948;4.568;2022-12-05T00:01:58;2.40;99.90
39815;DHT22;25495;45.948;4.568;2022-12-05T00:04:24;2.50;99.90
39815;DHT22;25495;45.948;4.568;2022-12-05T00:06:50;2.60;99.90
39815;DHT22;25495;45.948;4.568;2022-12-05T00:09:16;2.60;99.90
39815;DHT22;25495;45.948;4.568;2022-12-05T00:11:43;2.60;99.90
39815;DHT22;25495;45.948;4.568;2022-12-05T00:14:11;2.60;99.90
39815;DHT22;25495;45.948;4.568;2022-12-05T00:16:38;2.60;99.90
39815;DHT22;25495;45.948;4.568;2022-12-05T00:19:06;2.70;99.90
39815;DHT22;25495;45.948;4.568;2022-12-05T00:21:34;2.70;99.90
39815;DHT22;25495;45.948;4.568;2022-12-05T00:24:01;2.70;99.90
39815;DHT22;25495;45.948;4.568;2022-12-05T00:26:29;2.70;99.90
39815;DHT22;25495;45.948;4.568;2022-12-05T00:28:55;2.60;99.90
39815;DHT22;25495;45.948;4.568;2022-12-05T00:31:22;2.70;99.90
39815;DHT22;25495;45.948;4.568;2022-12-05T00:33:49;2.70;99.90
39815;DHT22;25495;45.948;4.568;2022-12-05T00:36:21;2.70;99.90
39815;DHT22;25495;45.948;4.568;2022-12-05T00:38:47;2.70;99.90
39815;DHT22;25495;45.948;4.568;2022-12-05T00:41:15;2.70;99.90
39815;DHT22;25495;45.948;4.568;2022-12-05T00:43:42;2.70;99.90
39815;DHT22;25495;45.948;4.568;2022-12-05T00:46:10;2.70;99.90
39815;DHT22;25495;45.948;4.568;2022-12-05T00:48:37;2.70;99.90
39815;DHT22;25495;45.948;4.568;2022-12-05T00:53:36;2.60;99.90
39815;DHT22;25495;45.948;4.568;2022-12-05T00:56:07;2.50;99.90
39815;DHT22;25495;45.948;4.568;2022-12-05T00:58:33;2.50;99.90
39815;DHT22;25495;45.948;4.568;2022-12-05T01:01:12;2.50;99.90
39815;DHT22;25495;45.948;4.568;2022-12-05T01:03:38;2.50;99.90
39815;DHT22;25495;45.948;4.568;2022-12-05T01:06:08;2.50;99.90
39815;DHT22;25495;45.948;4.568;2022-12-05T01:08:35;2.40;99.90
39815;DHT22;25495;45.948;4.568;2022-12-05T01:11:03;2.20;99.90
39815;DHT22;25495;45.948;4.568;2022-12-05T01:13:29;1.80;99.90
39815;DHT22;25495;45.948;4.568;2022-12-05T01:15:55;1.60;99.90
39815;DHT22;25495;45.948;4.568;2022-12-05T01:18:22;1.60;99.90
39815;DHT22;25495;45.948;4.568;2022-12-05T01:20:48;1.80;99.90
39815;DHT22;25495;45.948;4.568;2022-12-05T01:23:14;1.70;99.90
39815;DHT22;25495;45.948;4.568;2022-12-05T01:25:41;1.80;99.90
39815;DHT22;25495;45.948;4.568;2022-12-05T01:28:08;2.00;99.90
39815;DHT22;25495;45.948;4.568;2022-12-05T01:30:38;2.10;99.90
39815;DHT22;25495;45.948;4.568;2022-12-05T01:33:04;2.20;99.90
39815;DHT22;25495;45.948;4.568;2022-12-05T01:35:34;2.10;99.90
39815;DHT22;25495;45.948;4.568;2022-12-05T01:38:01;2.00;99.90
39815;DHT22;25495;45.948;4.568;2022-12-05T01:40:27;2.00;99.90
39815;DHT22;25495;45.948;4.568;2022-12-05T01:42:53;1.90;99.90
39815;DHT22;25495;45.948;4.568;2022-12-05T01:45:36;1.80;99.90
39815;DHT22;25495;45.948;4.568;2022-12-05T01:48:08;1.80;99.90
39815;DHT22;25495;45.948;4.568;2022-12-05T01:50:35;1.90;99.90
39815;DHT22;25495;45.948;4.568;2022-12-05T01:53:02;2.00;99.90
39815;DHT22;25495;45.948;4.568;2022-12-05T01:55:28;2.10;99.90
39815;DHT22;25495;45.948;4.568;2022-12-05T01:57:56;2.20;99.90
39815;DHT22;25495;45.948;4.568;2022-12-05T02:00:22;2.20;99.90
39815;DHT22;25495;45.948;4.568;2022-12-05T02:02:59;2.30;99.90
39815;DHT22;25495;45.948;4.568;2022-12-05T02:05:29;2.30;99.90
39815;DHT22;25495;45.948;4.568;2022-12-05T02:07:57;2.20;99.90
39815;DHT22;25495;45.948;4.568;2022-12-05T02:10:25;1.90;99.90
39815;DHT22;25495;45.948;4.568;2022-12-05T02:12:52;1.70;99.90
39815;DHT22;25495;45.948;4.568;2022-12-05T02:23:44;1.70;99.90
39815;DHT22;25495;45.948;4.568;2022-12-05T02:38:25;2.00;99.90
39815;DHT22;25495;45.948;4.568;2022-12-05T02:43:39;2.00;99.90
39815;DHT22;25495;45.948;4.568;2022-12-05T02:46:20;2.00;99.90
39815;DHT22;25495;45.948;4.568;2022-12-05T02:48:47;2.10;99.90
39815;DHT22;25495;45.948;4.568;2022-12-05T02:51:18;2.20;99.90
39815;DHT22;25495;45.948;4.568;2022-12-05T02:53:45;2.30;99.90
39815;DHT22;25495;45.948;4.568;2022-12-05T02:56:14;2.10;99.90
39815;DHT22;25495;45.948;4.568;2022-12-05T02:58:49;2.10;99.90
39815;DHT22;25495;45.948;4.568;2022-12-05T03:01:18;1.80;99.90
39815;DHT22;25495;45.948;4.568;2022-12-05T03:03:46;1.50;99.90
39815;DHT22;25495;45.948;4.568;2022-12-05T03:06:29;1.50;99.90
39815;DHT22;25495;45.948;4.568;2022-12-05T03:09:06;1.60;99.90
39815;DHT22;25495;45.948;4.568;2022-12-05T03:11:48;1.70;99.90
39815;DHT22;25495;45.948;4.568;2022-12-05T03:14:22;1.70;99.90
39815;DHT22;25495;45.948;4.568;2022-12-05T03:16:55;1.80;99.90
39815;DHT22;25495;45.948;4.568;2022-12-05T03:22:06;1.80;99.90
39815;DHT22;25495;45.948;4.568;2022-12-05T03:24:36;1.70;99.90
39815;DHT22;25495;45.948;4.568;2022-12-05T03:32:36;1.60;99.90
39815;DHT22;25495;45.948;4.568;2022-12-05T03:35:21;1.60;99.90
39815;DHT22;25495;45.948;4.568;2022-12-05T03:37:58;1.70;99.90
39815;DHT22;25495;45.948;4.568;2022-12-05T03:40:47;1.70;99.90
39815;DHT22;25495;45.948;4.568;2022-12-05T03:43:16;1.90;99.90
39815;DHT22;25495;45.948;4.568;2022-12-05T03:45:53;1.80;99.90
39815;DHT22;25495;45.948;4.568;2022-12-05T03:48:23;1.60;99.90
39815;DHT22;25495;45.948;4.568;2022-12-05T03:50:53;1.50;99.90
39815;DHT22;25495;45.948;4.568;2022-12-05T03:53:26;1.40;99.90
39815;DHT22;25495;45.948;4.568;2022-12-05T03:56:03;1.50;99.90
39815;DHT22;25495;45.948;4.568;2022-12-05T03:58:44;1.30;99.90
39815;DHT22;25495;45.948;4.568;2022-12-05T04:01:11;1.40;99.90
39815;DHT22;25495;45.948;4.568;2022-12-05T04:03:45;1.30;99.90
39815;DHT22;25495;45.948;4.568;2022-12-05T04:06:28;1.40;99.90
39815;DHT22;25495;45.948;4.568;2022-12-05T04:08:58;1.50;99.90
39815;DHT22;25495;45.948;4.568;2022-12-05T04:11:29;1.40;99.90
39815;DHT22;25495;45.948;4.568;2022-12-05T04:14:05;1.40;99.90
39815;DHT22;25495;45.948;4.568;2022-12-05T04:16:40;1.20;99.90
39815;DHT22;25495;45.948;4.568;2022-12-05T04:22:32;1.20;99.90
39815;DHT22;25495;45.948;4.568;2022-12-05T04:25:00;1.20;99.90
39815;DHT22;25495;45.948;4.568;2022-12-05T04:30:20;1.20;99.90
39815;DHT22;25495;45.948;4.568;2022-12-05T04:33:01;1.20;99.90
39815;DHT22;25495;45.948;4.568;2022-12-05T04:35:38;1.20;99.90
39815;DHT22;25495;45.948;4.568;2022-12-05T04:38:19;1.20;99.90
39815;DHT22;25495;45.948;4.568;2022-12-05T04:41:02;1.30;99.90
39815;DHT22;25495;45.948;4.568;2022-12-05T04:43:30;1.30;99.90
39815;DHT22;25495;45.948;4.568;2022-12-05T04:45:59;1.20;99.90
39815;DHT22;25495;45.948;4.568;2022-12-05T04:48:27;1.30;99.90
39815;DHT22;25495;45.948;4.568;2022-12-05T04:50:55;1.30;99.90
39815;DHT22;25495;45.948;4.568;2022-12-05T04:53:24;1.30;99.90
39815;DHT22;25495;45.948;4.568;2022-12-05T04:55:54;1.40;99.90
39815;DHT22;25495;45.948;4.568;2022-12-05T04:58:22;1.40;99.90
39815;DHT22;25495;45.948;4.568;2022-12-05T05:01:09;1.50;99.90
39815;DHT22;25495;45.948;4.568;2022-12-05T05:03:42;1.50;99.90
39815;DHT22;25495;45.948;4.568;2022-12-05T05:06:11;1.50;99.90
39815;DHT22;25495;45.948;4.568;2022-12-05T05:08:46;1.60;99.90
39815;DHT22;25495;45.948;4.568;2022-12-05T05:11:24;1.60;99.90
39815;DHT22;25495;45.948;4.568;2022-12-05T05:13:51;1.60;99.90
39815;DHT22;25495;45.948;4.568;2022-12-05T05:16:21;1.60;99.90
39815;DHT22;25495;45.948;4.568;2022-12-05T05:18:47;1.60;99.90
39815;DHT22;25495;45.948;4.568;2022-12-05T05:23:47;1.70;99.90
39815;DHT22;25495;45.948;4.568;2022-12-05T05:26:13;1.70;99.90
39815;DHT22;25495;45.948;4.568;2022-12-05T05:28:39;1.60;99.90
39815;DHT22;25495;45.948;4.568;2022-12-05T05:31:05;1.60;99.90
39815;DHT22;25495;45.948;4.568;2022-12-05T05:33:32;1.60;99.90
39815;DHT22;25495;45.948;4.568;2022-12-05T05:36:10;1.60;99.90
39815;DHT22;25495;45.948;4.568;2022-12-05T05:38:37;1.60;99.90
39815;DHT22;25495;45.948;4.568;2022-12-05T05:41:04;1.60;99.90
39815;DHT22;25495;45.948;4.568;2022-12-05T05:43:30;1.50;99.90
39815;DHT22;25495;45.948;4.568;2022-12-05T05:45:57;1.50;99.90
39815;DHT22;25495;45.948;4.568;2022-12-05T05:48:22;1.50;99.90
39815;DHT22;25495;45.948;4.568;2022-12-05T05:50:48;1.50;99.90
39815;DHT22;25495;45.948;4.568;2022-12-05T05:53:14;1.40;99.90
39815;DHT22;25495;45.948;4.568;2022-12-05T05:55:40;1.40;99.90
39815;DHT22;25495;45.948;4.568;2022-12-05T05:58:07;1.60;99.90
39815;DHT22;25495;45.948;4.568;2022-12-05T06:00:33;1.70;99.90
39815;DHT22;25495;45.948;4.568;2022-12-05T06:02:59;1.50;99.90
39815;DHT22;25495;45.948;4.568;2022-12-05T06:05:25;1.40;99.90
39815;DHT22;25495;45.948;4.568;2022-12-05T06:07:51;1.40;99.90
39815;DHT22;25495;45.948;4.568;2022-12-05T06:10:17;1.40;99.90
39815;DHT22;25495;45.948;4.568;2022-12-05T06:12:43;1.40;99.90
39815;DHT22;25495;45.948;4.568;2022-12-05T06:15:10;1.40;99.90
39815;DHT22;25495;45.948;4.568;2022-12-05T06:17:35;1.40;99.90
39815;DHT22;25495;45.948;4.568;2022-12-05T06:20:02;1.50;99.90
39815;DHT22;25495;45.948;4.568;2022-12-05T06:22:28;1.60;99.90
39815;DHT22;25495;45.948;4.568;2022-12-05T06:24:54;1.60;99.90
39815;DHT22;25495;45.948;4.568;2022-12-05T06:27:20;1.50;99.90
39815;DHT22;25495;45.948;4.568;2022-12-05T06:29:46;1.40;99.90
39815;DHT22;25495;45.948;4.568;2022-12-05T06:32:12;1.40;99.90
39815;DHT22;25495;45.948;4.568;2022-12-05T06:34:37;1.40;99.90
39815;DHT22;25495;45.948;4.568;2022-12-05T06:37:03;1.50;99.90
39815;DHT22;25495;45.948;4.568;2022-12-05T06:39:29;1.60;99.90
39815;DHT22;25495;45.948;4.568;2022-12-05T06:41:55;1.60;99.90
39815;DHT22;25495;45.948;4.568;2022-12-05T06:44:21;1.70;99.90
39815;DHT22;25495;45.948;4.568;2022-12-05T06:46:47;1.60;99.90
39815;DHT22;25495;45.948;4.568;2022-12-05T06:49:13;1.60;99.90
39815;DHT22;25495;45.948;4.568;2022-12-05T06:51:39;1.70;99.90
39815;DHT22;25495;45.948;4.568;2022-12-05T06:54:05;1.60;99.90
39815;DHT22;25495;45.948;4.568;2022-12-05T06:56:31;1.50;99.90
39815;DHT22;25495;45.948;4.568;2022-12-05T06:58:57;1.30;99.90
39815;DHT22;25495;45.948;4.568;2022-12-05T07:01:23;1.30;99.90
39815;DHT22;25495;45.948;4.568;2022-12-05T07:04:14;1.30;99.90
39815;DHT22;25495;45.948;4.568;2022-12-05T07:06:41;1.30;99.90
39815;DHT22;25495;45.948;4.568;2022-12-05T07:09:09;1.20;99.90
39815;DHT22;25495;45.948;4.568;2022-12-05T07:11:35;1.20;99.90
39815;DHT22;25495;45.948;4.568;2022-12-05T07:14:02;1.30;99.90
39815;DHT22;25495;45.948;4.568;2022-12-05T07:16:29;1.80;99.90
39815;DHT22;25495;45.948;4.568;2022-12-05T07:18:55;2.40;99.90
39815;DHT22;25495;45.948;4.568;2022-12-05T07:21:22;3.10;99.90
39815;DHT22;25495;45.948;4.568;2022-12-05T07:23:48;2.00;99.90
39815;DHT22;25495;45.948;4.568;2022-12-05T07:26:20;1.60;99.90
39815;DHT22;25495;45.948;4.568;2022-12-05T07:28:47;1.50;99.90
39815;DHT22;25495;45.948;4.568;2022-12-05T07:31:19;1.50;99.90
39815;DHT22;25495;45.948;4.568;2022-12-05T07:33:46;1.70;99.90
39815;DHT22;25495;45.948;4.568;2022-12-05T07:36:14;1.80;99.90
39815;DHT22;25495;45.948;4.568;2022-12-05T07:38:41;1.90;99.90
39815;DHT22;25495;45.948;4.568;2022-12-05T07:41:18;1.90;99.90
39815;DHT22;25495;45.948;4.568;2022-12-05T07:43:44;2.00;99.90
39815;DHT22;25495;45.948;4.568;2022-12-05T07:46:10;2.00;99.90
39815;DHT22;25495;45.948;4.568;2022-12-05T07:48:36;2.00;99.90
39815;DHT22;25495;45.948;4.568;2022-12-05T07:51:03;2.00;99.90
39815;DHT22;25495;45.948;4.568;2022-12-05T07:53:30;2.20;99.90
39815;DHT22;25495;45.948;4.568;2022-12-05T07:56:01;2.50;99.90
39815;DHT22;25495;45.948;4.568;2022-12-05T07:58:28;2.40;99.90
39815;DHT22;25495;45.948;4.568;2022-12-05T08:00:54;2.60;99.90
39815;DHT22;25495;45.948;4.568;2022-12-05T08:03:20;2.70;99.90
39815;DHT22;25495;45.948;4.568;2022-12-05T08:05:46;2.80;99.90
39815;DHT22;25495;45.948;4.568;2022-12-05T08:08:11;2.40;99.90
39815;DHT22;25495;45.948;4.568;2022-12-05T08:10:37;2.20;99.90
39815;DHT22;25495;45.948;4.568;2022-12-05T08:13:03;2.10;99.90
39815;DHT22;25495;45.948;4.568;2022-12-05T08:15:29;2.10;99.90
39815;DHT22;25495;45.948;4.568;2022-12-05T08:17:55;2.20;99.90
39815;DHT22;25495;45.948;4.568;2022-12-05T08:20:20;2.20;99.90
39815;DHT22;25495;45.948;4.568;2022-12-05T08:22:46;2.30;99.90
39815;DHT22;25495;45.948;4.568;2022-12-05T08:25:12;2.30;99.90
39815;DHT22;25495;45.948;4.568;2022-12-05T08:27:38;2.50;99.90
39815;DHT22;25495;45.948;4.568;2022-12-05T08:30:04;2.80;99.90
39815;DHT22;25495;45.948;4.568;2022-12-05T08:32:30;3.10;99.90
39815;DHT22;25495;45.948;4.568;2022-12-05T08:34:56;3.30;99.90
39815;DHT22;25495;45.948;4.568;2022-12-05T08:37:22;2.90;99.90
39815;DHT22;25495;45.948;4.568;2022-12-05T08:39:47;2.60;99.90
39815;DHT22;25495;45.948;4.568;2022-12-05T08:42:13;2.60;99.90
39815;DHT22;25495;45.948;4.568;2022-12-05T08:44:39;2.60;99.90
39815;DHT22;25495;45.948;4.568;2022-12-05T08:47:05;2.60;99.90
39815;DHT22;25495;45.948;4.568;2022-12-05T08:49:31;2.80;99.90
39815;DHT22;25495;45.948;4.568;2022-12-05T08:51:56;2.80;99.90
39815;DHT22;25495;45.948;4.568;2022-12-05T08:54:22;2.90;99.90
39815;DHT22;25495;45.948;4.568;2022-12-05T08:56:51;3.40;99.90
39815;DHT22;25495;45.948;4.568;2022-12-05T08:59:17;3.50;99.90
39815;DHT22;25495;45.948;4.568;2022-12-05T09:01:44;3.70;99.90
39815;DHT22;25495;45.948;4.568;2022-12-05T09:04:10;3.60;99.90
39815;DHT22;25495;45.948;4.568;2022-12-05T09:06:36;3.80;99.90
39815;DHT22;25495;45.948;4.568;2022-12-05T09:09:06;3.90;99.90
39815;DHT22;25495;45.948;4.568;2022-12-05T09:11:34;4.40;99.90
39815;DHT22;25495;45.948;4.568;2022-12-05T09:14:01;4.40;99.90
39815;DHT22;25495;45.948;4.568;2022-12-05T09:16:29;4.50;99.90
39815;DHT22;25495;45.948;4.568;2022-12-05T09:18:56;4.40;99.90
39815;DHT22;25495;45.948;4.568;2022-12-05T09:21:27;4.40;99.90
39815;DHT22;25495;45.948;4.568;2022-12-05T09:23:53;4.50;99.90
39815;DHT22;25495;45.948;4.568;2022-12-05T09:26:22;4.80;99.90
39815;DHT22;25495;45.948;4.568;2022-12-05T09:28:49;4.90;99.90
39815;DHT22;25495;45.948;4.568;2022-12-05T09:31:18;4.90;99.90
39815;DHT22;25495;45.948;4.568;2022-12-05T09:33:45;4.90;99.90
39815;DHT22;25495;45.948;4.568;2022-12-05T09:36:19;5.00;99.90
39815;DHT22;25495;45.948;4.568;2022-12-05T09:38:46;5.30;99.90
39815;DHT22;25495;45.948;4.568;2022-12-05T09:41:46;5.40;99.90
39815;DHT22;25495;45.948;4.568;2022-12-05T09:52:31;5.70;99.90
39815;DHT22;25495;45.948;4.568;2022-12-05T09:55:04;5.80;99.90
39815;DHT22;25495;45.948;4.568;2022-12-05T09:57:35;5.80;99.90
39815;DHT22;25495;45.948;4.568;2022-12-05T10:00:05;5.80;99.90
39815;DHT22;25495;45.948;4.568;2022-12-05T10:02:46;6.20;99.90
39815;DHT22;25495;45.948;4.568;2022-12-05T10:05:39;6.50;99.90
39815;DHT22;25495;45.948;4.568;2022-12-05T10:08:28;6.50;99.90
39815;DHT22;25495;45.948;4.568;2022-12-05T10:11:04;6.40;99.90
39815;DHT22;25495;45.948;4.568;2022-12-05T10:13:51;6.30;99.90
39815;DHT22;25495;45.948;4.568;2022-12-05T10:16:32;6.40;99.90
39815;DHT22;25495;45.948;4.568;2022-12-05T10:19:11;6.30;99.90
39815;DHT22;25495;45.948;4.568;2022-12-05T10:24:32;6.10;99.90
39815;DHT22;25495;45.948;4.568;2022-12-05T10:27:07;6.20;99.90
39815;DHT22;25495;45.948;4.568;2022-12-05T10:29:41;6.40;99.90
39815;DHT22;25495;45.948;4.568;2022-12-05T10:32:30;6.20;99.90
39815;DHT22;25495;45.948;4.568;2022-12-05T10:35:11;6.60;99.90
39815;DHT22;25495;45.948;4.568;2022-12-05T10:37:46;6.10;99.90
39815;DHT22;25495;45.948;4.568;2022-12-05T10:40:13;5.80;99.90
39815;DHT22;25495;45.948;4.568;2022-12-05T10:42:39;5.90;99.90
39815;DHT22;25495;45.948;4.568;2022-12-05T10:45:12;6.00;99.90
39815;DHT22;25495;45.948;4.568;2022-12-05T10:47:38;6.30;99.90
39815;DHT22;25495;45.948;4.568;2022-12-05T10:50:18;6.60;99.90
39815;DHT22;25495;45.948;4.568;2022-12-05T10:52:45;6.70;99.90
39815;DHT22;25495;45.948;4.568;2022-12-05T10:55:14;6.50;99.90
39815;DHT22;25495;45.948;4.568;2022-12-05T10:57:41;6.70;99.90
39815;DHT22;25495;45.948;4.568;2022-12-05T11:00:12;6.80;99.90
39815;DHT22;25495;45.948;4.568;2022-12-05T11:02:40;6.60;99.90
39815;DHT22;25495;45.948;4.568;2022-12-05T11:05:07;6.90;99.90
39815;DHT22;25495;45.948;4.568;2022-12-05T11:07:37;7.10;99.90
39815;DHT22;25495;45.948;4.568;2022-12-05T11:10:33;7.20;99.90
39815;DHT22;25495;45.948;4.568;2022-12-05T11:12:59;7.30;99.90
39815;DHT22;25495;45.948;4.568;2022-12-05T11:15:27;7.40;99.90
39815;DHT22;25495;45.948;4.568;2022-12-05T11:17:55;7.00;99.90
39815;DHT22;25495;45.948;4.568;2022-12-05T11:22:52;7.10;99.90
39815;DHT22;25495;45.948;4.568;2022-12-05T11:27:54;7.40;99.90
39815;DHT22;25495;45.948;4.568;2022-12-05T11:30:22;7.60;99.90
39815;DHT22;25495;45.948;4.568;2022-12-05T11:32:49;7.80;99.90
39815;DHT22;25495;45.948;4.568;2022-12-05T11:35:24;7.60;99.90
39815;DHT22;25495;45.948;4.568;2022-12-05T11:38:01;7.50;99.90
39815;DHT22;25495;45.948;4.568;2022-12-05T11:43:25;7.70;99.90
39815;DHT22;25495;45.948;4.568;2022-12-05T11:49:22;7.80;99.90
39815;DHT22;25495;45.948;4.568;2022-12-05T11:54:59;8.00;99.90
39815;DHT22;25495;45.948;4.568;2022-12-05T12:06:30;7.90;99.90
39815;DHT22;25495;45.948;4.568;2022-12-05T12:12:01;8.00;99.90
39815;DHT22;25495;45.948;4.568;2022-12-05T12:14:35;7.90;99.90
39815;DHT22;25495;45.948;4.568;2022-12-05T12:17:09;7.90;99.90
39815;DHT22;25495;45.948;4.568;2022-12-05T12:22:58;8.10;99.90
39815;DHT22;25495;45.948;4.568;2022-12-05T12:25:45;8.00;99.90
39815;DHT22;25495;45.948;4.568;2022-12-05T12:36:06;7.90;99.90
39815;DHT22;25495;45.948;4.568;2022-12-05T12:42:17;7.90;99.90
39815;DHT22;25495;45.948;4.568;2022-12-05T12:50:32;7.50;99.90
39815;DHT22;25495;45.948;4.568;2022-12-05T13:04:08;7.40;99.90
39815;DHT22;25495;45.948;4.568;2022-12-05T13:09:17;7.30;99.90
39815;DHT22;25495;45.948;4.568;2022-12-05T13:11:47;7.30;99.90
39815;DHT22;25495;45.948;4.568;2022-12-05T13:14:17;7.30;99.90
39815;DHT22;25495;45.948;4.568;2022-12-05T13:16:50;7.20;99.90
39815;DHT22;25495;45.948;4.568;2022-12-05T13:19:43;7.20;99.90
39815;DHT22;25495;45.948;4.568;2022-12-05T13:22:11;7.10;99.90
39815;DHT22;25495;45.948;4.568;2022-12-05T13:24:38;7.20;99.90
39815;DHT22;25495;45.948;4.568;2022-12-05T13:27:06;7.30;99.90
39815;DHT22;25495;45.948;4.568;2022-12-05T13:32:04;7.20;99.90
39815;DHT22;25495;45.948;4.568;2022-12-05T13:37:09;7.10;99.90
39815;DHT22;25495;45.948;4.568;2022-12-05T13:39:56;7.20;99.90
39815;DHT22;25495;45.948;4.568;2022-12-05T13:42:41;7.00;99.90
39815;DHT22;25495;45.948;4.568;2022-12-05T13:45:10;6.90;99.90
39815;DHT22;25495;45.948;4.568;2022-12-05T13:47:51;6.90;99.90
39815;DHT22;25495;45.948;4.568;2022-12-05T13:50:42;6.80;99.90
39815;DHT22;25495;45.948;4.568;2022-12-05T13:56:25;6.90;99.90
39815;DHT22;25495;45.948;4.568;2022-12-05T13:58:56;6.80;99.90
39815;DHT22;25495;45.948;4.568;2022-12-05T14:04:02;6.60;99.90
39815;DHT22;25495;45.948;4.568;2022-12-05T14:09:29;6.50;99.90
39815;DHT22;25495;45.948;4.568;2022-12-05T14:17:43;6.40;99.90
39815;DHT22;25495;45.948;4.568;2022-12-05T14:37:55;6.20;99.90
39815;DHT22;25495;45.948;4.568;2022-12-05T14:40:43;6.20;99.90
39815;DHT22;25495;45.948;4.568;2022-12-05T14:46:14;6.20;99.90
39815;DHT22;25495;45.948;4.568;2022-12-05T14:48:41;6.10;99.90
39815;DHT22;25495;45.948;4.568;2022-12-05T14:54:15;6.00;99.90
39815;DHT22;25495;45.948;4.568;2022-12-05T14:56:43;6.00;99.90
39815;DHT22;25495;45.948;4.568;2022-12-05T14:59:48;5.90;99.90
39815;DHT22;25495;45.948;4.568;2022-12-05T15:02:26;5.90;99.90
39815;DHT22;25495;45.948;4.568;2022-12-05T15:05:02;6.00;99.90
39815;DHT22;25495;45.948;4.568;2022-12-05T15:07:35;6.00;99.90
39815;DHT22;25495;45.948;4.568;2022-12-05T15:10:15;6.00;99.90
39815;DHT22;25495;45.948;4.568;2022-12-05T15:18:02;5.80;99.90
39815;DHT22;25495;45.948;4.568;2022-12-05T15:20:41;5.80;99.90
39815;DHT22;25495;45.948;4.568;2022-12-05T15:23:37;5.70;99.90
39815;DHT22;25495;45.948;4.568;2022-12-05T15:26:04;5.70;99.90
39815;DHT22;25495;45.948;4.568;2022-12-05T15:28:36;5.70;99.90
39815;DHT22;25495;45.948;4.568;2022-12-05T15:31:02;5.70;99.90
39815;DHT22;25495;45.948;4.568;2022-12-05T15:33:28;5.70;99.90
39815;DHT22;25495;45.948;4.568;2022-12-05T15:35:55;5.60;99.90
39815;DHT22;25495;45.948;4.568;2022-12-05T15:38:30;5.50;99.90
39815;DHT22;25495;45.948;4.568;2022-12-05T15:40:57;5.50;99.90
39815;DHT22;25495;45.948;4.568;2022-12-05T15:46:17;5.90;99.90
39815;DHT22;25495;45.948;4.568;2022-12-05T15:48:45;5.80;99.90
39815;DHT22;25495;45.948;4.568;2022-12-05T15:51:11;5.80;99.90
39815;DHT22;25495;45.948;4.568;2022-12-05T15:56:20;6.60;99.90
39815;DHT22;25495;45.948;4.568;2022-12-05T15:58:53;6.10;99.90
39815;DHT22;25495;45.948;4.568;2022-12-05T16:01:24;5.80;99.90
39815;DHT22;25495;45.948;4.568;2022-12-05T16:03:59;5.50;99.90
39815;DHT22;25495;45.948;4.568;2022-12-05T16:06:41;5.10;99.90
39815;DHT22;25495;45.948;4.568;2022-12-05T16:09:22;4.90;99.90
39815;DHT22;25495;45.948;4.568;2022-12-05T16:12:03;4.80;99.90
39815;DHT22;25495;45.948;4.568;2022-12-05T16:14:36;4.50;99.90
39815;DHT22;25495;45.948;4.568;2022-12-05T16:17:04;4.40;99.90
39815;DHT22;25495;45.948;4.568;2022-12-05T16:19:32;4.30;99.90
39815;DHT22;25495;45.948;4.568;2022-12-05T16:24:46;4.20;99.90
39815;DHT22;25495;45.948;4.568;2022-12-05T16:27:23;4.10;99.90
39815;DHT22;25495;45.948;4.568;2022-12-05T16:30:16;4.10;99.90
39815;DHT22;25495;45.948;4.568;2022-12-05T16:32:44;4.00;99.90
39815;DHT22;25495;45.948;4.568;2022-12-05T16:38:10;4.10;99.90
39815;DHT22;25495;45.948;4.568;2022-12-05T16:45:51;4.30;99.90
39815;DHT22;25495;45.948;4.568;2022-12-05T16:48:28;4.10;99.90
39815;DHT22;25495;45.948;4.568;2022-12-05T16:53:36;4.10;99.90
39815;DHT22;25495;45.948;4.568;2022-12-05T16:56:05;4.00;99.90
39815;DHT22;25495;45.948;4.568;2022-12-05T16:58:33;4.00;99.90
39815;DHT22;25495;45.948;4.568;2022-12-05T17:01:02;4.10;99.90
39815;DHT22;25495;45.948;4.568;2022-12-05T17:03:32;4.10;99.90
39815;DHT22;25495;45.948;4.568;2022-12-05T17:05:59;3.90;99.90
39815;DHT22;25495;45.948;4.568;2022-12-05T17:08:25;3.70;99.90
39815;DHT22;25495;45.948;4.568;2022-12-05T17:10:52;3.70;99.90
39815;DHT22;25495;45.948;4.568;2022-12-05T17:13:19;3.50;99.90
39815;DHT22;25495;45.948;4.568;2022-12-05T17:15:45;3.50;99.90
39815;DHT22;25495;45.948;4.568;2022-12-05T17:18:19;3.40;99.90
39815;DHT22;25495;45.948;4.568;2022-12-05T17:20:48;3.20;99.90
39815;DHT22;25495;45.948;4.568;2022-12-05T17:23:16;3.30;99.90
39815;DHT22;25495;45.948;4.568;2022-12-05T17:25:48;3.30;99.90
39815;DHT22;25495;45.948;4.568;2022-12-05T17:28:14;3.30;99.90
39815;DHT22;25495;45.948;4.568;2022-12-05T17:30:40;3.50;99.90
39815;DHT22;25495;45.948;4.568;2022-12-05T17:33:09;3.50;99.90
39815;DHT22;25495;45.948;4.568;2022-12-05T17:35:35;3.60;99.90
39815;DHT22;25495;45.948;4.568;2022-12-05T17:38:03;3.60;99.90
39815;DHT22;25495;45.948;4.568;2022-12-05T17:40:29;3.60;99.90
39815;DHT22;25495;45.948;4.568;2022-12-05T17:42:55;3.60;99.90
39815;DHT22;25495;45.948;4.568;2022-12-05T17:45:21;3.60;99.90
39815;DHT22;25495;45.948;4.568;2022-12-05T17:47:47;3.60;99.90
39815;DHT22;25495;45.948;4.568;2022-12-05T17:50:15;3.70;99.90
39815;DHT22;25495;45.948;4.568;2022-12-05T17:52:41;3.40;99.90
39815;DHT22;25495;45.948;4.568;2022-12-05T17:55:19;3.20;99.90
39815;DHT22;25495;45.948;4.568;2022-12-05T17:57:45;3.20;99.90
39815;DHT22;25495;45.948;4.568;2022-12-05T18:00:12;3.10;99.90
39815;DHT22;25495;45.948;4.568;2022-12-05T18:02:39;3.00;99.90
39815;DHT22;25495;45.948;4.568;2022-12-05T18:05:05;2.90;99.90
39815;DHT22;25495;45.948;4.568;2022-12-05T18:07:31;2.90;99.90
39815;DHT22;25495;45.948;4.568;2022-12-05T18:09:57;2.80;99.90
39815;DHT22;25495;45.948;4.568;2022-12-05T18:12:23;2.80;99.90
39815;DHT22;25495;45.948;4.568;2022-12-05T18:14:49;2.90;99.90
39815;DHT22;25495;45.948;4.568;2022-12-05T18:17:15;2.90;99.90
39815;DHT22;25495;45.948;4.568;2022-12-05T18:19:41;2.90;99.90
39815;DHT22;25495;45.948;4.568;2022-12-05T18:22:07;2.90;99.90
39815;DHT22;25495;45.948;4.568;2022-12-05T18:24:32;2.80;99.90
39815;DHT22;25495;45.948;4.568;2022-12-05T18:26:58;2.50;99.90
39815;DHT22;25495;45.948;4.568;2022-12-05T18:29:24;2.50;99.90
39815;DHT22;25495;45.948;4.568;2022-12-05T18:31:50;2.60;99.90
39815;DHT22;25495;45.948;4.568;2022-12-05T18:34:16;2.60;99.90
39815;DHT22;25495;45.948;4.568;2022-12-05T18:36:42;2.60;99.90
39815;DHT22;25495;45.948;4.568;2022-12-05T18:39:12;2.60;99.90
39815;DHT22;25495;45.948;4.568;2022-12-05T18:41:39;2.40;99.90
39815;DHT22;25495;45.948;4.568;2022-12-05T18:44:05;2.50;99.90
39815;DHT22;25495;45.948;4.568;2022-12-05T18:46:33;2.50;99.90
39815;DHT22;25495;45.948;4.568;2022-12-05T18:48:58;2.50;99.90
39815;DHT22;25495;45.948;4.568;2022-12-05T18:51:24;2.50;99.90
39815;DHT22;25495;45.948;4.568;2022-12-05T18:53:51;2.40;99.90
39815;DHT22;25495;45.948;4.568;2022-12-05T18:56:22;2.30;99.90
39815;DHT22;25495;45.948;4.568;2022-12-05T18:59:14;2.50;99.90
39815;DHT22;25495;45.948;4.568;2022-12-05T19:01:38;2.60;99.90
39815;DHT22;25495;45.948;4.568;2022-12-05T19:04:07;2.60;99.90
39815;DHT22;25495;45.948;4.568;2022-12-05T19:06:37;2.70;99.90